createdAt,value
2022-11-29T00:01:31.765Z,-4.48
2022-11-29T00:03:59.044Z,-4.44
2022-11-29T00:06:31.221Z,-4.52
2022-11-29T00:09:00.207Z,-4.50
2022-11-29T00:11:30.234Z,-4.42
2022-11-29T00:13:56.748Z,-4.45
2022-11-29T00:16:23.382Z,-4.55
2022-11-29T00:18:49.940Z,-4.53
2022-11-29T00:21:16.438Z,-4.54
2022-11-29T00:23:43.020Z,-4.40
2022-11-29T00:26:09.567Z,-4.45
2022-11-29T00:28:36.797Z,-4.39
2022-11-29T00:31:21.070Z,-4.48
2022-11-29T00:33:48.079Z,-4.54
2022-11-29T00:36:15.324Z,-4.40
2022-11-29T00:38:42.450Z,-4.57
2022-11-29T00:41:09.572Z,-4.63
2022-11-29T00:43:36.742Z,-4.71
2022-11-29T00:46:04.486Z,-4.78
2022-11-29T00:48:31.856Z,-4.66
2022-11-29T00:50:58.595Z,-4.71
2022-11-29T00:53:25.455Z,-4.69
2022-11-29T00:55:52.623Z,-4.77
2022-11-29T00:58:21.126Z,-4.84
2022-11-29T01:00:48.470Z,-4.86
2022-11-29T01:03:16.654Z,-4.81
2022-11-29T01:05:43.609Z,-4.83
2022-11-29T01:08:11.318Z,-4.84
2022-11-29T01:10:38.067Z,-4.87
2022-11-29T01:13:04.739Z,-4.85
2022-11-29T01:15:32.003Z,-4.66
2022-11-29T01:17:58.605Z,-4.67
2022-11-29T01:20:25.233Z,-4.81
2022-11-29T01:22:51.792Z,-4.72
2022-11-29T01:25:18.464Z,-4.75
2022-11-29T01:27:45.478Z,-4.67
2022-11-29T01:30:14.329Z,-4.64
2022-11-29T01:32:40.830Z,-4.74
2022-11-29T01:35:08.002Z,-4.67
2022-11-29T01:37:34.819Z,-4.58
2022-11-29T01:40:01.431Z,-4.51
2022-11-29T01:42:28.009Z,-4.46
2022-11-29T01:45:13.646Z,-4.45
2022-11-29T01:47:44.962Z,-4.42
2022-11-29T01:50:11.717Z,-4.30
2022-11-29T01:52:38.446Z,-4.68
2022-11-29T01:55:07.596Z,-4.69
2022-11-29T01:57:36.736Z,-4.63
2022-11-29T02:00:10.991Z,-4.64
2022-11-29T02:03:01.262Z,-4.69
2022-11-29T02:05:28.111Z,-4.80
2022-11-29T02:07:57.632Z,-4.72
2022-11-29T02:11:02.645Z,-4.87
2022-11-29T02:13:51.016Z,-4.84
2022-11-29T02:16:37.142Z,-4.86
2022-11-29T02:19:11.618Z,-4.80
2022-11-29T02:21:53.157Z,-4.93
2022-11-29T02:24:49.788Z,-4.84
2022-11-29T02:27:40.659Z,-5.08
2022-11-29T02:30:12.986Z,-5.11
2022-11-29T02:32:54.481Z,-5.04
2022-11-29T02:35:47.014Z,-4.96
2022-11-29T02:38:40.045Z,-5.00
2022-11-29T02:41:30.865Z,-4.81
2022-11-29T02:44:19.275Z,-4.96
2022-11-29T02:47:13.250Z,-4.95
2022-11-29T02:49:48.735Z,-4.85
2022-11-29T02:52:26.004Z,-4.85
2022-11-29T02:55:03.678Z,-4.64
2022-11-29T02:57:58.936Z,-4.86
2022-11-29T03:00:25.818Z,-4.86
2022-11-29T03:03:17.474Z,-4.77
2022-11-29T03:05:44.054Z,-5.05
2022-11-29T03:08:28.370Z,-4.97
2022-11-29T03:11:06.709Z,-5.07
2022-11-29T03:13:39.069Z,-5.08
2022-11-29T03:16:19.257Z,-5.12
2022-11-29T03:19:13.667Z,-5.01
2022-11-29T03:21:52.315Z,-5.12
2022-11-29T03:24:45.929Z,-5.00
2022-11-29T03:27:21.235Z,-5.13
2022-11-29T03:29:59.871Z,-5.16
2022-11-29T03:32:35.407Z,-5.23
2022-11-29T03:35:04.781Z,-5.38
2022-11-29T03:37:49.864Z,-5.33
2022-11-29T03:40:30.277Z,-5.46
2022-11-29T03:43:04.248Z,-5.38
2022-11-29T03:45:49.351Z,-5.55
2022-11-29T03:48:21.978Z,-5.51
2022-11-29T03:51:07.287Z,-5.52
2022-11-29T03:53:39.112Z,-5.49
2022-11-29T03:56:23.007Z,-5.50
2022-11-29T03:59:04.882Z,-5.45
2022-11-29T04:01:43.257Z,-5.40
2022-11-29T04:04:22.749Z,-5.69
2022-11-29T04:07:18.666Z,-5.84
2022-11-29T04:10:03.555Z,-6.04
2022-11-29T04:12:57.117Z,-6.16
2022-11-29T04:15:41.469Z,-6.20
2022-11-29T04:18:49.199Z,-6.30
2022-11-29T04:21:30.590Z,-6.41
2022-11-29T04:24:06.417Z,-6.53
2022-11-29T04:26:51.827Z,-6.60
2022-11-29T04:29:54.960Z,-6.50
2022-11-29T04:32:45.934Z,-6.65
2022-11-29T04:35:33.277Z,-6.70
2022-11-29T04:38:08.969Z,-6.78
2022-11-29T04:41:09.456Z,-6.81
2022-11-29T04:44:06.971Z,-6.81
2022-11-29T04:46:39.801Z,-6.91
2022-11-29T04:49:24.387Z,-6.79
2022-11-29T04:52:12.432Z,-6.97
2022-11-29T04:54:56.908Z,-7.03
2022-11-29T04:57:39.264Z,-6.98
2022-11-29T05:00:19.925Z,-7.04
2022-11-29T05:03:01.949Z,-7.12
2022-11-29T05:05:48.469Z,-6.96
2022-11-29T05:08:45.190Z,-7.01
2022-11-29T05:11:33.481Z,-7.05
2022-11-29T05:14:21.424Z,-7.11
2022-11-29T05:17:06.686Z,-7.01
2022-11-29T05:19:56.407Z,-7.13
2022-11-29T05:22:43.218Z,-7.13
2022-11-29T05:25:24.763Z,-6.89
2022-11-29T05:27:51.346Z,-6.96
2022-11-29T05:30:23.607Z,-7.01
2022-11-29T05:33:17.178Z,-6.96
2022-11-29T05:36:01.803Z,-6.75
2022-11-29T05:38:28.383Z,-6.75
2022-11-29T05:41:32.477Z,-6.63
2022-11-29T05:44:24.648Z,-6.68
2022-11-29T05:46:59.395Z,-6.64
2022-11-29T05:50:00.464Z,-6.53
2022-11-29T05:52:57.319Z,-6.51
2022-11-29T05:55:45.473Z,-6.49
2022-11-29T05:58:43.337Z,-6.25
2022-11-29T06:01:22.365Z,-6.16
2022-11-29T06:04:19.647Z,-6.15
2022-11-29T06:06:46.242Z,-5.86
2022-11-29T06:09:12.742Z,-5.47
2022-11-29T06:11:46.019Z,-5.42
2022-11-29T06:14:29.132Z,-4.77
2022-11-29T06:17:00.370Z,-5.09
2022-11-29T06:19:45.841Z,-5.39
2022-11-29T06:22:18.203Z,-5.16
2022-11-29T06:25:00.176Z,-5.37
2022-11-29T06:28:03.936Z,-4.77
2022-11-29T06:30:55.981Z,-4.34
2022-11-29T06:33:26.173Z,-4.16
2022-11-29T06:36:19.668Z,-4.23
2022-11-29T06:38:46.493Z,-4.30
2022-11-29T06:41:23.436Z,-4.18
2022-11-29T06:43:50.883Z,-4.35
2022-11-29T06:46:32.718Z,-4.19
2022-11-29T06:49:08.914Z,-3.29
2022-11-29T06:51:54.154Z,-2.79
2022-11-29T06:54:23.439Z,-2.62
2022-11-29T06:56:55.117Z,-2.39
2022-11-29T06:59:43.254Z,-1.42
2022-11-29T07:02:37.878Z,-1.43
2022-11-29T07:05:23.207Z,-1.11
2022-11-29T07:07:53.978Z,-1.21
2022-11-29T07:10:21.719Z,-1.54
2022-11-29T07:12:50.735Z,-1.87
2022-11-29T07:15:20.201Z,-1.29
2022-11-29T07:17:52.459Z,-1.20
2022-11-29T07:20:39.433Z,-1.35
2022-11-29T07:23:11.685Z,-1.09
2022-11-29T07:25:41.067Z,-0.91
2022-11-29T07:28:35.205Z,-1.13
2022-11-29T07:31:11.158Z,-1.77
2022-11-29T07:34:09.673Z,-2.51
2022-11-29T07:36:59.910Z,-2.72
2022-11-29T07:39:54.043Z,-2.98
2022-11-29T07:42:45.394Z,-2.78
2022-11-29T07:45:14.779Z,-2.66
2022-11-29T07:47:41.232Z,-2.53
2022-11-29T07:50:08.409Z,-2.59
2022-11-29T07:52:35.116Z,-2.74
2022-11-29T07:55:02.084Z,-2.52
2022-11-29T07:57:28.623Z,-2.31
2022-11-29T07:59:55.143Z,-2.03
2022-11-29T08:02:31.857Z,-2.26
2022-11-29T08:04:58.635Z,-2.15
2022-11-29T08:07:25.515Z,-1.97
2022-11-29T08:09:52.786Z,-2.53
2022-11-29T08:12:19.462Z,-2.27
2022-11-29T08:14:46.201Z,-2.20
2022-11-29T08:17:13.100Z,-2.11
2022-11-29T08:19:39.558Z,-2.11
2022-11-29T08:22:06.041Z,-2.07
2022-11-29T08:24:32.784Z,-2.25
2022-11-29T08:26:59.373Z,-1.90
2022-11-29T08:29:25.991Z,-2.03
2022-11-29T08:31:53.718Z,-2.15
2022-11-29T08:34:21.926Z,-1.85
2022-11-29T08:36:49.580Z,-1.74
2022-11-29T08:39:16.799Z,-2.00
2022-11-29T08:41:43.679Z,-2.17
2022-11-29T08:44:10.269Z,-1.80
2022-11-29T08:46:36.883Z,-1.86
2022-11-29T08:49:03.416Z,-1.52
2022-11-29T08:51:29.918Z,-1.48
2022-11-29T08:53:56.561Z,-1.41
2022-11-29T08:57:10.143Z,-1.33
2022-11-29T08:59:09.715Z,-1.18
2022-11-29T09:01:36.306Z,-1.14
2022-11-29T09:04:02.884Z,-1.24
2022-11-29T09:06:32.491Z,-1.51
2022-11-29T09:09:00.455Z,-1.82
2022-11-29T09:11:29.027Z,-2.52
2022-11-29T09:13:58.456Z,-3.34
2022-11-29T09:16:27.756Z,-3.67
2022-11-29T09:18:54.899Z,-4.18
2022-11-29T09:21:27.523Z,-4.14
2022-11-29T09:23:55.140Z,-4.37
2022-11-29T09:26:21.680Z,-4.41
2022-11-29T09:28:48.709Z,-4.55
2022-11-29T09:31:16.608Z,-4.54
2022-11-29T09:33:43.158Z,-4.47
2022-11-29T09:36:11.527Z,-4.48
2022-11-29T09:38:39.053Z,-4.46
2022-11-29T09:41:20.611Z,-4.50
2022-11-29T09:44:11.861Z,-4.58
2022-11-29T09:47:01.155Z,-4.57
2022-11-29T09:49:48.337Z,-4.49
2022-11-29T09:52:33.659Z,-4.39
2022-11-29T09:55:41.299Z,-4.33
2022-11-29T09:58:13.611Z,-4.45
2022-11-29T10:00:53.448Z,-4.34
2022-11-29T10:03:25.332Z,-4.32
2022-11-29T10:05:58.537Z,-4.35
2022-11-29T10:08:33.805Z,-4.49
2022-11-29T10:11:16.072Z,-4.56
2022-11-29T10:13:49.103Z,-4.44
2022-11-29T10:16:30.504Z,-4.34
2022-11-29T10:19:38.146Z,-4.24
2022-11-29T10:22:29.010Z,-4.39
2022-11-29T10:25:01.559Z,-4.46
2022-11-29T10:27:28.840Z,-4.56
2022-11-29T10:29:58.297Z,-4.59
2022-11-29T10:32:29.030Z,-4.58
2022-11-29T10:34:55.553Z,-4.56
2022-11-29T10:37:24.540Z,-4.46
2022-11-29T10:39:55.786Z,-4.47
2022-11-29T10:42:24.854Z,-4.66
2022-11-29T10:44:51.598Z,-4.86
2022-11-29T10:47:18.213Z,-4.91
2022-11-29T10:49:44.807Z,-4.92
2022-11-29T10:52:19.773Z,-4.89
2022-11-29T10:54:48.455Z,-4.93
2022-11-29T10:57:18.569Z,-4.93
2022-11-29T11:00:10.139Z,-4.94
2022-11-29T11:02:37.304Z,-4.90
2022-11-29T11:05:13.065Z,-5.09
2022-11-29T11:07:40.294Z,-5.11
2022-11-29T11:10:26.918Z,-5.03
2022-11-29T11:13:18.852Z,-5.19
2022-11-29T11:15:45.747Z,-5.21
2022-11-29T11:18:21.172Z,-5.19
2022-11-29T11:20:58.983Z,-5.19
2022-11-29T11:23:36.383Z,-5.26
2022-11-29T11:26:08.136Z,-5.32
2022-11-29T11:28:49.562Z,-5.29
2022-11-29T11:31:25.646Z,-5.41
2022-11-29T11:33:52.272Z,-5.37
2022-11-29T11:36:27.051Z,-5.49
2022-11-29T11:38:59.753Z,-5.47
2022-11-29T11:41:28.861Z,-5.62
2022-11-29T11:43:59.188Z,-5.74
2022-11-29T11:46:48.348Z,-5.74
2022-11-29T11:49:39.269Z,-5.66
2022-11-29T11:52:07.366Z,-5.71
2022-11-29T11:54:34.225Z,-5.76
2022-11-29T11:57:00.815Z,-5.85
2022-11-29T11:59:28.043Z,-5.83
2022-11-29T12:01:54.539Z,-5.81
2022-11-29T12:04:41.550Z,-5.95
2022-11-29T12:10:39.754Z,-5.95
2022-11-29T12:13:14.976Z,-6.00
2022-11-29T12:15:45.094Z,-6.06
2022-11-29T12:18:20.492Z,-6.09
2022-11-29T12:20:56.129Z,-6.21
2022-11-29T12:23:50.334Z,-6.05
2022-11-29T12:26:55.380Z,-6.04
2022-11-29T12:29:15.280Z,-6.06
2022-11-29T12:31:44.983Z,-6.19
2022-11-29T12:34:43.368Z,-6.25
2022-11-29T12:37:19.059Z,-6.23
2022-11-29T12:39:57.213Z,-6.35
2022-11-29T12:42:32.473Z,-6.30
2022-11-29T12:45:17.757Z,-6.44
2022-11-29T12:48:11.944Z,-6.50
2022-11-29T12:50:51.238Z,-6.61
2022-11-29T12:53:36.432Z,-6.64
2022-11-29T12:56:11.866Z,-6.85
2022-11-29T12:58:46.203Z,-6.78
2022-11-29T13:01:21.793Z,-6.79
2022-11-29T13:04:08.258Z,-6.66
2022-11-29T13:06:49.440Z,-6.72
2022-11-29T13:09:40.641Z,-6.81
2022-11-29T13:12:18.920Z,-6.86
2022-11-29T13:14:57.250Z,-7.03
2022-11-29T13:17:56.498Z,-7.03
2022-11-29T13:20:29.194Z,-7.00
2022-11-29T13:23:09.408Z,-7.10
2022-11-29T13:25:40.838Z,-7.10
2022-11-29T13:28:25.471Z,-7.10
2022-11-29T13:30:56.603Z,-7.27
2022-11-29T13:33:46.291Z,-7.45
2022-11-29T13:36:23.071Z,-7.45
2022-11-29T13:38:59.689Z,-7.43
2022-11-29T13:41:36.400Z,-7.37
2022-11-29T13:44:19.782Z,-7.45
2022-11-29T13:47:02.278Z,-7.45
2022-11-29T13:49:53.675Z,-7.52
2022-11-29T13:52:33.630Z,-7.33
2022-11-29T13:55:10.752Z,-7.42
2022-11-29T13:58:17.734Z,-7.34
2022-11-29T14:00:44.880Z,-7.53
2022-11-29T14:03:23.485Z,-7.38
2022-11-29T14:05:51.661Z,-7.52
2022-11-29T14:08:48.104Z,-7.42
2022-11-29T14:11:22.463Z,-7.60
2022-11-29T14:14:19.097Z,-7.51
2022-11-29T14:16:50.440Z,-7.57
2022-11-29T14:19:30.070Z,-7.69
2022-11-29T14:21:59.435Z,-7.59
2022-11-29T14:24:32.196Z,-7.72
2022-11-29T14:27:07.923Z,-7.73
2022-11-29T14:29:49.477Z,-7.76
2022-11-29T14:32:34.712Z,-7.76
2022-11-29T14:35:08.076Z,-7.77
2022-11-29T14:37:52.883Z,-7.76
2022-11-29T14:40:40.746Z,-7.71
2022-11-29T14:43:19.498Z,-7.66
2022-11-29T14:45:46.243Z,-7.76
2022-11-29T14:48:46.970Z,-7.85
2022-11-29T14:51:18.128Z,-7.90
2022-11-29T14:53:48.034Z,-7.97
2022-11-29T14:56:30.141Z,-7.93
2022-11-29T14:59:33.929Z,-7.70
2022-11-29T15:02:34.276Z,-7.68
2022-11-29T15:05:14.295Z,-7.78
2022-11-29T15:08:10.421Z,-7.66
2022-11-29T15:10:42.110Z,-7.64
2022-11-29T15:13:23.462Z,-7.44
2022-11-29T15:16:08.878Z,-7.52
2022-11-29T15:19:04.177Z,-7.76
2022-11-29T15:21:49.165Z,-7.86
2022-11-29T15:24:17.671Z,-7.84
2022-11-29T15:27:01.763Z,-7.89
2022-11-29T15:29:30.319Z,-7.78
2022-11-29T15:31:59.651Z,-7.72
2022-11-29T15:34:33.855Z,-7.82
2022-11-29T15:37:00.887Z,-7.75
2022-11-29T15:39:37.357Z,-7.68
2022-11-29T15:42:11.026Z,-7.75
2022-11-29T15:44:38.378Z,-7.78
2022-11-29T15:47:20.501Z,-7.73
2022-11-29T15:49:47.296Z,-7.81
2022-11-29T15:52:29.512Z,-7.84
2022-11-29T15:55:11.627Z,-7.76
2022-11-29T15:57:42.810Z,-7.88
2022-11-29T16:00:17.078Z,-7.93
2022-11-29T16:02:53.804Z,-7.83
2022-11-29T16:05:31.697Z,-7.95
2022-11-29T16:08:04.488Z,-7.85
2022-11-29T16:10:39.378Z,-7.95
2022-11-29T16:13:26.018Z,-7.76
2022-11-29T16:16:07.102Z,-7.67
2022-11-29T16:18:33.866Z,-7.76
2022-11-29T16:21:03.020Z,-7.84
2022-11-29T16:23:40.190Z,-7.86
2022-11-29T16:26:12.329Z,-7.58
2022-11-29T16:28:47.622Z,-7.79
2022-11-29T16:31:19.284Z,-7.66
2022-11-29T16:33:47.123Z,-7.85
2022-11-29T16:36:21.107Z,-7.81
2022-11-29T16:38:54.234Z,-7.87
2022-11-29T16:41:32.610Z,-7.81
2022-11-29T16:44:00.647Z,-7.95
2022-11-29T16:46:28.940Z,-8.04
2022-11-29T16:48:58.271Z,-7.86
2022-11-29T16:51:32.198Z,-7.96
2022-11-29T16:54:20.321Z,-7.99
2022-11-29T16:56:46.999Z,-8.00
2022-11-29T16:59:25.137Z,-7.87
2022-11-29T17:01:55.355Z,-7.96
2022-11-29T17:04:23.568Z,-7.90
2022-11-29T17:06:55.755Z,-7.94
2022-11-29T17:09:29.883Z,-7.92
2022-11-29T17:11:57.844Z,-8.06
2022-11-29T17:14:24.334Z,-8.09
2022-11-29T17:16:51.264Z,-8.12
2022-11-29T17:19:20.651Z,-7.99
2022-11-29T17:21:47.336Z,-8.08
2022-11-29T17:24:16.647Z,-8.16
2022-11-29T17:26:44.066Z,-8.02
2022-11-29T17:29:11.836Z,-8.02
2022-11-29T17:31:39.251Z,-8.18
2022-11-29T17:34:06.055Z,-8.11
2022-11-29T17:36:33.192Z,-8.09
2022-11-29T17:39:00.190Z,-8.04
2022-11-29T17:41:28.024Z,-8.02
2022-11-29T17:43:56.152Z,-8.11
2022-11-29T17:46:23.892Z,-8.11
2022-11-29T17:48:50.761Z,-8.12
2022-11-29T17:51:49.936Z,-8.07
2022-11-29T17:54:07.816Z,-8.10
2022-11-29T17:56:34.350Z,-7.99
2022-11-29T17:59:02.464Z,-7.96
2022-11-29T18:01:31.880Z,-7.93
2022-11-29T18:04:00.318Z,-8.01
2022-11-29T18:06:31.277Z,-8.10
2022-11-29T18:08:59.903Z,-8.00
2022-11-29T18:11:35.329Z,-8.06
2022-11-29T18:14:10.811Z,-8.10
2022-11-29T18:16:37.631Z,-8.09
2022-11-29T18:19:10.769Z,-8.10
2022-11-29T18:21:38.366Z,-8.04
2022-11-29T18:24:07.107Z,-8.08
2022-11-29T18:26:35.114Z,-8.04
2022-11-29T18:29:01.782Z,-8.08
2022-11-29T18:31:30.944Z,-8.14
2022-11-29T18:34:00.423Z,-8.11
2022-11-29T18:36:29.874Z,-8.16
2022-11-29T18:39:01.154Z,-8.18
2022-11-29T18:41:29.566Z,-8.19
2022-11-29T18:43:58.914Z,-8.10
2022-11-29T18:46:26.484Z,-8.17
2022-11-29T18:48:52.997Z,-8.17
2022-11-29T18:51:20.327Z,-8.06
2022-11-29T18:53:47.008Z,-8.14
2022-11-29T18:56:16.930Z,-8.13
2022-11-29T18:58:45.207Z,-8.17
2022-11-29T19:01:14.785Z,-8.20
2022-11-29T19:03:43.490Z,-8.21
2022-11-29T19:06:19.045Z,-8.24
2022-11-29T19:08:46.102Z,-8.28
2022-11-29T19:11:15.662Z,-8.21
2022-11-29T19:13:42.667Z,-8.35
2022-11-29T19:16:13.276Z,-8.35
2022-11-29T19:18:39.968Z,-8.37
2022-11-29T19:21:11.532Z,-8.39
2022-11-29T19:23:38.432Z,-8.34
2022-11-29T19:26:06.909Z,-8.50
2022-11-29T19:28:36.235Z,-8.46
2022-11-29T19:31:03.321Z,-8.52
2022-11-29T19:33:29.854Z,-8.51
2022-11-29T19:35:56.479Z,-8.56
2022-11-29T19:38:23.056Z,-8.59
2022-11-29T19:40:49.530Z,-8.56
2022-11-29T19:43:16.110Z,-8.53
2022-11-29T19:45:42.665Z,-8.58
2022-11-29T19:48:09.146Z,-8.60
2022-11-29T19:50:36.035Z,-8.62
2022-11-29T19:53:02.572Z,-8.64
2022-11-29T19:55:29.163Z,-8.61
2022-11-29T19:57:56.363Z,-8.65
2022-11-29T20:00:22.951Z,-8.62
2022-11-29T20:02:49.561Z,-8.63
2022-11-29T20:05:16.340Z,-8.58
2022-11-29T20:07:43.106Z,-8.53
2022-11-29T20:10:09.865Z,-8.46
2022-11-29T20:12:36.439Z,-8.44
2022-11-29T20:15:03.229Z,-8.45
2022-11-29T20:17:29.848Z,-8.50
2022-11-29T20:19:56.477Z,-8.46
2022-11-29T20:22:22.987Z,-8.55
2022-11-29T20:24:49.439Z,-8.56
2022-11-29T20:27:16.013Z,-8.53
2022-11-29T20:29:42.562Z,-8.51
2022-11-29T20:32:09.219Z,-8.61
2022-11-29T20:34:36.787Z,-8.39
2022-11-29T20:37:21.409Z,-8.46
2022-11-29T20:40:19.981Z,-8.53
2022-11-29T20:43:16.444Z,-8.61
2022-11-29T20:45:43.298Z,-8.48
2022-11-29T20:48:30.131Z,-8.43
2022-11-29T20:51:00.154Z,-8.44
2022-11-29T20:53:42.843Z,-8.53
2022-11-29T20:56:10.633Z,-8.45
2022-11-29T20:58:38.019Z,-8.50
2022-11-29T21:01:05.228Z,-8.41
2022-11-29T21:03:32.014Z,-8.30
2022-11-29T21:06:01.991Z,-8.35
2022-11-29T21:08:29.055Z,-8.37
2022-11-29T21:11:02.538Z,-8.48
2022-11-29T21:13:29.497Z,-8.54
2022-11-29T21:15:56.326Z,-8.47
2022-11-29T21:18:28.401Z,-8.45
2022-11-29T21:21:03.768Z,-8.32
2022-11-29T21:23:36.134Z,-8.29
2022-11-29T21:26:10.507Z,-8.38
2022-11-29T21:28:53.823Z,-8.44
2022-11-29T21:31:20.712Z,-8.41
2022-11-29T21:33:47.510Z,-8.35
2022-11-29T21:36:14.157Z,-8.29
2022-11-29T21:38:41.204Z,-8.32
2022-11-29T21:41:07.758Z,-8.36
2022-11-29T21:44:04.523Z,-8.35
2022-11-29T21:46:21.004Z,-8.43
2022-11-29T21:48:47.882Z,-8.54
2022-11-29T21:51:14.396Z,-8.45
2022-11-29T21:53:40.921Z,-8.46
2022-11-29T21:56:10.046Z,-8.43
2022-11-29T21:58:38.347Z,-8.45
2022-11-29T22:01:06.870Z,-8.36
2022-11-29T22:03:33.471Z,-8.44
2022-11-29T22:06:08.217Z,-8.41
2022-11-29T22:08:39.819Z,-8.43
2022-11-29T22:11:11.049Z,-8.17
2022-11-29T22:13:39.305Z,-8.32
2022-11-29T22:16:08.210Z,-8.36
2022-11-29T22:18:35.411Z,-8.38
2022-11-29T22:21:06.431Z,-8.36
2022-11-29T22:23:33.716Z,-8.37
2022-11-29T22:26:06.677Z,-8.41
2022-11-29T22:28:34.557Z,-8.46
2022-11-29T22:31:12.040Z,-8.44
2022-11-29T22:33:38.702Z,-8.57
2022-11-29T22:36:10.778Z,-8.54
2022-11-29T22:38:37.933Z,-8.53
2022-11-29T22:41:10.999Z,-8.57
2022-11-29T22:43:38.560Z,-8.53
2022-11-29T22:46:14.031Z,-8.62
2022-11-29T22:48:41.961Z,-8.70
2022-11-29T22:51:15.664Z,-8.72
2022-11-29T22:53:47.383Z,-8.74
2022-11-29T22:56:13.846Z,-8.64
2022-11-29T22:58:40.512Z,-8.73
2022-11-29T23:01:15.178Z,-8.72
2022-11-29T23:03:44.590Z,-8.67
2022-11-29T23:06:16.426Z,-8.72
2022-11-29T23:08:45.224Z,-8.83
2022-11-29T23:11:14.924Z,-8.81
2022-11-29T23:13:42.565Z,-8.88
2022-11-29T23:16:12.649Z,-8.93
2022-11-29T23:18:39.254Z,-8.93
2022-11-29T23:21:09.137Z,-8.86
2022-11-29T23:23:36.991Z,-8.93
2022-11-29T23:26:04.838Z,-9.06
2022-11-29T23:28:31.575Z,-9.01
2022-11-29T23:31:00.043Z,-9.01
2022-11-29T23:33:27.620Z,-9.09
2022-11-29T23:36:02.707Z,-9.08
2022-11-29T23:38:29.453Z,-9.07
2022-11-29T23:40:56.566Z,-9.02
2022-11-29T23:43:23.372Z,-9.11
2022-11-29T23:45:50.698Z,-8.99
2022-11-29T23:48:17.485Z,-9.01
2022-11-29T23:50:44.013Z,-9.06
2022-11-29T23:53:16.140Z,-9.08
2022-11-29T23:55:43.021Z,-9.26
2022-11-29T23:58:10.719Z,-9.31
